This is the latest recevied weather packets stored in our database for station/object VY2CRA-4. If no packets are shown the sender has not sent any weather packets the latest 10 day(s).
| Time | Temp. | Humidity | Pressure | Rain* | Wind** | Luminosity | Snow |
|---|---|---|---|---|---|---|---|
| 1787447788 | 25° C | 28% | 1018 hPa | 0 mm | - | - | - |
| 1787446588 | 25° C | 28% | 1018.1 hPa | 0 mm | - | - | - |
| 1787444186 | 25.56° C | 26% | 1018.1 hPa | 0 mm | - | - | - |
| 1787441784 | 26.11° C | 22% | 1018.1 hPa | 0 mm | - | - | - |
| 1787440583 | 27.22° C | 19% | 1018 hPa | 0 mm | - | - | - |
| 1787439382 | 27.22° C | 17% | 1018 hPa | 0 mm | - | - | - |
| 1787438181 | 27.78° C | 16% | 1017.7 hPa | 0 mm | - | - | - |
| 1787434578 | 28.33° C | 13% | 1017.7 hPa | 0 mm | - | - | - |
| 1787433377 | 28.89° C | 12% | 1017.8 hPa | 0 mm | - | - | - |
| 1787430975 | 30.56° C | 7% | 1017.5 hPa | 0 mm | - | - | - |
| 1787428574 | 31.11° C | 5% | 1017.8 hPa | 0 mm | - | - | - |
| 1787426172 | 31.67° C | 5% | 1018.1 hPa | 0 mm | - | - | - |
| 1787424971 | 32.22° C | 4% | 1018.3 hPa | 0 mm | - | - | - |
| 1787423770 | 32.22° C | 2% | 1018.5 hPa | 0 mm | - | - | - |
| 1787422569 | 32.78° C | 3% | 1018.2 hPa | 0 mm | - | - | - |
| 1787421368 | 32.22° C | 2% | 1018.4 hPa | 0 mm | - | - | - |
| 1787420168 | 32.78° C | 4% | 1018.3 hPa | 0 mm | - | - | - |
| 1787418966 | 33.33° C | 1% | 1018.3 hPa | 0 mm | - | - | - |
| 1787416564 | 33.33° C | 2% | 1018.5 hPa | 0 mm | - | - | - |
| 1787414162 | 32.78° C | 2% | 1018.6 hPa | 0 mm | - | - | - |
| 1787412961 | 32.78° C | 3% | 1018.9 hPa | 0 mm | - | - | - |
| 1787410560 | 32.78° C | 4% | 1018.9 hPa | 0 mm | - | - | - |
| 1787409359 | 32.22° C | 5% | 1018.9 hPa | 0 mm | - | - | - |
| 1787406957 | 32.78° C | 3% | 1018.9 hPa | 0 mm | - | - | - |
| 1787405756 | 33.33° C | 2% | 1018.9 hPa | 0 mm | - | - | - |
* Rain since midnight (hover to see other rain measurements)
** Current wind speed in m/s (hover to see current wind gust speed)